Weather History for Owatonna, MN

Change the Weather History Date:

Wednesday, December 12, 2012

  Actual Average Record
Temperature  
Mean Temperature 32 °F -  
Max Temperature 44 °F 30 °F 58 °F (1968)
Min Temperature 21 °F 12 °F -14 °F (1962)
Degree Days  
Heating Degree Days 32    
Moisture  
Dew Point 19 °F    
Average Humidity 52    
Maximum Humidity 86    
Minimum Humidity 37    
Precipitation  
Precipitation 0.00 in - - ()
Sea Level Pressure  
Sea Level Pressure 29.89 in    
Wind  
Wind Speed 13 mph (SSE)    
Max Wind Speed 23 mph    
Max Gust Speed 30 mph    
Visibility 10 miles    
Events      
Averages and records for this station are not official NWS values.
T = Trace of Precipitation, MM = Missing Value Source: NWS Daily Summary

Daily Weather History Graph

Daily Weather History Graph

Search for Another Location

Airport:

Trip Planner

Search our weather history database for the weather conditions in past years. The results will help you decide how hot, cold, wet, or windy it might be!

Date:

Astronomy

Dec. 12, 2012 Rise Set
Actual Time 7:39 AM CST 4:34 PM CST
Civil Twilight 7:06 AM CST 5:07 PM CST
Nautical Twilight 6:29 AM CST 5:44 PM CST
Astronomical Twilight 5:54 AM CST 6:19 PM CST
Moon 6:43 AM CST (12/12) 4:12 PM CST (12/12)
Length of Visible Light 10h 01m
Length of Day
8h 55m
Waning Crescent, 1% of the Moon is Illuminated
Dec 12
Waning Crescent
Dec 13
New
Dec 19
First Quarter
Dec 28
Full
Jan 4
Last Quarter

Hourly Weather History & Observations

Time (CST) Temp. Windchill Dew Point Humidity Pressure Visibility Wind Dir Wind Speed Gust Speed Precip Events Conditions
12:13 AM 21.2 °F 11.7 °F 17.6 °F 86% 29.96 in 7.0 mi SE 8.1 mph - N/A   Clear
12:33 AM 23.0 °F 13.9 °F 17.6 °F 80% 29.96 in 7.0 mi SE 8.1 mph - N/A   Clear
12:53 AM 23.0 °F 14.7 °F 17.6 °F 80% 29.96 in 7.0 mi SE 6.9 mph - N/A   Clear
1:13 AM 23.0 °F 14.7 °F 17.6 °F 80% 29.96 in 7.0 mi SE 6.9 mph - N/A   Clear
1:33 AM 21.2 °F 12.6 °F 17.6 °F 86% 29.96 in 7.0 mi ESE 6.9 mph - N/A   Clear
1:53 AM 23.0 °F 13.1 °F 17.6 °F 80% 29.96 in 7.0 mi SE 9.2 mph - N/A   Clear
2:14 AM 24.8 °F 14.0 °F 17.6 °F 74% 29.96 in 10.0 mi SE 11.5 mph - N/A   Clear
2:33 AM 24.8 °F 14.6 °F 17.6 °F 74% 29.95 in 10.0 mi SE 10.4 mph - N/A   Clear
2:53 AM 24.8 °F 14.0 °F 17.6 °F 74% 29.95 in 10.0 mi SE 11.5 mph - N/A   Clear
3:14 AM 24.8 °F 14.6 °F 17.6 °F 74% 29.94 in 10.0 mi SE 10.4 mph - N/A   Clear
3:53 AM 24.8 °F 12.9 °F 17.6 °F 74% 29.93 in 10.0 mi SE 13.8 mph - N/A   Clear
4:13 AM 24.8 °F 12.9 °F 17.6 °F 74% 29.92 in 10.0 mi SE 13.8 mph - N/A   Clear
4:34 AM 26.6 °F 15.7 °F 17.6 °F 69% 29.91 in 10.0 mi SE 12.7 mph - N/A   Clear
4:54 AM 26.6 °F 15.7 °F 17.6 °F 69% 29.91 in 10.0 mi SE 12.7 mph - N/A   Clear
5:13 AM 28.4 °F 17.5 °F 19.4 °F 69% 29.90 in 10.0 mi SE 13.8 mph - N/A   Clear
5:53 AM 28.4 °F 16.6 °F 17.6 °F 64% 29.90 in 10.0 mi SSE 16.1 mph 24.2 mph N/A   Scattered Clouds
6:13 AM 30.2 °F 19.3 °F 17.6 °F 60% 29.91 in 10.0 mi SSE 15.0 mph 23.0 mph N/A   Scattered Clouds
6:33 AM 30.2 °F 18.9 °F 17.6 °F 60% 29.90 in 10.0 mi SSE 16.1 mph - N/A   Mostly Cloudy
6:53 AM 30.2 °F 18.1 °F 17.6 °F 60% 29.90 in 10.0 mi SSE 18.4 mph - N/A   Overcast
7:13 AM 30.2 °F 18.5 °F 19.4 °F 64% 29.89 in 10.0 mi SSE 17.3 mph 24.2 mph N/A   Overcast
7:33 AM 30.2 °F 17.4 °F 19.4 °F 64% 29.89 in 10.0 mi SSE 20.7 mph - N/A   Overcast
7:53 AM 32.0 °F 20.1 °F 19.4 °F 60% 29.88 in 10.0 mi SSE 19.6 mph 25.3 mph N/A   Overcast
8:13 AM 32.0 °F 20.1 °F 19.4 °F 60% 29.88 in 10.0 mi SSE 19.6 mph 26.5 mph N/A   Overcast
8:33 AM 33.8 °F 22.5 °F 19.4 °F 56% 29.89 in 10.0 mi SSE 19.6 mph - N/A   Mostly Cloudy
8:53 AM 33.8 °F 23.9 °F 19.4 °F 56% 29.89 in 10.0 mi SSE 15.0 mph 23.0 mph N/A   Overcast
9:14 AM 33.8 °F 23.9 °F 21.2 °F 60% 29.90 in 10.0 mi South 15.0 mph 21.9 mph N/A   Overcast
9:33 AM 35.6 °F 25.5 °F 19.4 °F 52% 29.90 in 10.0 mi South 17.3 mph - N/A   Overcast
9:54 AM 37.4 °F 28.2 °F 21.2 °F 52% 29.90 in 10.0 mi SSE 16.1 mph - N/A   Mostly Cloudy
10:13 AM 37.4 °F 28.5 °F 19.4 °F 48% 29.90 in 10.0 mi South 15.0 mph 21.9 mph N/A   Mostly Cloudy
10:34 AM 37.4 °F 28.2 °F 19.4 °F 48% 29.89 in 10.0 mi SSE 16.1 mph 21.9 mph N/A   Mostly Cloudy
10:54 AM 39.2 °F 29.6 °F 19.4 °F 45% 29.88 in 10.0 mi SSE 19.6 mph 25.3 mph N/A   Scattered Clouds
11:14 AM 39.2 °F 30.5 °F 19.4 °F 45% 29.88 in 10.0 mi SSE 16.1 mph 23.0 mph N/A   Clear
11:33 AM 39.2 °F 30.5 °F 19.4 °F 45% 29.87 in 10.0 mi South 16.1 mph - N/A   Clear
11:54 AM 39.2 °F 31.2 °F 21.2 °F 49% 29.87 in 10.0 mi SSE 13.8 mph 24.2 mph N/A   Clear
12:14 PM 41.0 °F 32.8 °F 21.2 °F 45% 29.86 in 10.0 mi SSE 16.1 mph 25.3 mph N/A   Clear
12:34 PM 42.8 °F 34.5 °F 19.4 °F 39% 29.85 in 10.0 mi South 18.4 mph 23.0 mph N/A   Clear
12:54 PM 42.8 °F 34.3 °F 19.4 °F 39% 29.85 in 10.0 mi South 19.6 mph 26.5 mph N/A   Clear
1:14 PM 42.8 °F 34.3 °F 19.4 °F 39% 29.84 in 10.0 mi South 19.6 mph 29.9 mph N/A   Clear
1:34 PM 42.8 °F 33.5 °F 19.4 °F 39% 29.83 in 10.0 mi South 23.0 mph 28.8 mph N/A   Clear
1:53 PM 44.6 °F 36.6 °F 19.4 °F 37% 29.83 in 10.0 mi South 19.6 mph 25.3 mph N/A   Clear
2:14 PM 44.6 °F 36.4 °F 19.4 °F 37% 29.82 in 10.0 mi South 20.7 mph 27.6 mph N/A   Clear
2:34 PM 44.6 °F 36.6 °F 21.2 °F 39% 29.82 in 10.0 mi South 19.6 mph 25.3 mph N/A   Clear
2:53 PM 44.6 °F 36.9 °F 21.2 °F 39% 29.83 in 10.0 mi South 18.4 mph - N/A   Clear
3:13 PM 44.6 °F 36.9 °F 21.2 °F 39% 29.83 in 10.0 mi South 18.4 mph - N/A   Clear
3:33 PM 44.6 °F 36.6 °F 21.2 °F 39% 29.83 in 10.0 mi South 19.6 mph 24.2 mph N/A   Clear
3:53 PM 44.6 °F 36.9 °F 21.2 °F 39% 29.84 in 10.0 mi South 18.4 mph - N/A   Clear
4:14 PM 44.6 °F 37.2 °F 21.2 °F 39% 29.84 in 10.0 mi South 17.3 mph - N/A   Clear
4:34 PM 44.6 °F 37.4 °F 21.2 °F 39% 29.84 in 10.0 mi South 16.1 mph - N/A   Clear
4:53 PM 44.6 °F 37.8 °F 21.2 °F 39% 29.85 in 10.0 mi South 15.0 mph - N/A   Clear
5:13 PM 44.6 °F 37.8 °F 21.2 °F 39% 29.86 in 10.0 mi South 15.0 mph - N/A   Clear
5:33 PM 44.6 °F 38.1 °F 21.2 °F 39% 29.86 in 10.0 mi South 13.8 mph - N/A   Clear
5:54 PM 44.6 °F 38.1 °F 21.2 °F 39% 29.87 in 10.0 mi South 13.8 mph - N/A   Clear
6:33 PM 42.8 °F 36.6 °F 21.2 °F 42% 29.88 in 10.0 mi South 11.5 mph - N/A   Scattered Clouds
6:54 PM 42.8 °F 36.2 °F 21.2 °F 42% 29.89 in 10.0 mi South 12.7 mph - N/A   Clear
7:13 PM 42.8 °F 35.8 °F 21.2 °F 42% 29.89 in 10.0 mi South 13.8 mph - N/A   Clear
7:33 PM 42.8 °F 35.8 °F 21.2 °F 42% 29.90 in 10.0 mi South 13.8 mph - N/A   Clear
7:53 PM 42.8 °F 35.4 °F 21.2 °F 42% 29.90 in 10.0 mi South 15.0 mph 19.6 mph N/A   Clear
8:13 PM 41.0 °F 32.8 °F 21.2 °F 45% 29.91 in 10.0 mi South 16.1 mph 21.9 mph N/A   Clear
8:34 PM 41.0 °F 32.5 °F 19.4 °F 42% 29.91 in 10.0 mi South 17.3 mph - N/A   Clear
8:54 PM 41.0 °F 33.1 °F 19.4 °F 42% 29.92 in 10.0 mi South 15.0 mph 19.6 mph N/A   Clear
9:13 PM 39.2 °F 31.6 °F 19.4 °F 45% 29.92 in 10.0 mi South 12.7 mph - N/A   Clear
9:33 PM 39.2 °F 30.5 °F 17.6 °F 42% 29.92 in 10.0 mi South 16.1 mph - N/A   Clear
9:54 PM 39.2 °F 30.5 °F 17.6 °F 42% 29.93 in 10.0 mi South 16.1 mph - N/A   Clear
10:14 PM 39.2 °F 30.8 °F 17.6 °F 42% 29.93 in 10.0 mi South 15.0 mph 20.7 mph N/A   Clear
10:54 PM 39.2 °F 30.8 °F 15.8 °F 39% 29.94 in 10.0 mi South 15.0 mph 19.6 mph N/A   Clear
11:13 PM 39.2 °F 31.2 °F 15.8 °F 39% 29.94 in 10.0 mi South 13.8 mph 20.7 mph N/A   Clear
11:34 PM 39.2 °F 30.2 °F 15.8 °F 39% 29.94 in 10.0 mi South 17.3 mph 23.0 mph N/A   Clear
11:54 PM 39.2 °F 29.6 °F 15.8 °F 39% 29.94 in 10.0 mi South 19.6 mph 24.2 mph N/A   Clear